Terminal Aerodrome Forecast
Issued by NWS

Home | Current Version | Previous Version | Text Only | Print | Product List | Glossary On
Versions: 1 2 3 4 5 6 7 8 9 10 11 12 13 14 15 16 17 18 19 20 21 22 23 24 25
000
FTUS41 KBUF 281500 AAA
TAFIAG
TAF AMD
KIAG 281506Z 2815/2912 24007KT P6SM SKC
     FM290000 20005KT P6SM FEW250
     FM290800 VRB03KT P6SM BKN110
     FM291000 15004KT P6SM OVC090=

USA.gov is the U.S. government's official web portal to all federal, state and local government web resources and services.